createdAt,value
2017-12-21T00:01:01.520Z,19.73
2017-12-21T00:04:02.795Z,22.87
2017-12-21T00:07:04.068Z,20.90
2017-12-21T00:10:05.407Z,18.37
2017-12-21T00:13:06.666Z,16.33
2017-12-21T00:16:08.766Z,21.23
2017-12-21T00:19:10.790Z,22.53
2017-12-21T00:22:12.088Z,23.20
2017-12-21T00:25:13.341Z,18.13
2017-12-21T00:28:15.341Z,21.90
2017-12-21T00:31:16.619Z,24.57
2017-12-21T00:34:17.913Z,20.20
2017-12-21T00:37:19.146Z,24.27
2017-12-21T00:40:21.273Z,25.27
2017-12-21T00:43:22.583Z,31.50
2017-12-21T00:46:24.907Z,23.27
2017-12-21T00:49:27.120Z,22.10
2017-12-21T00:52:28.899Z,23.50
2017-12-21T00:55:30.214Z,31.07
2017-12-21T00:58:32.285Z,29.03
2017-12-21T01:01:33.560Z,22.97
2017-12-21T01:04:34.778Z,27.93
2017-12-21T01:07:36.793Z,26.73
2017-12-21T01:10:38.252Z,22.30
2017-12-21T01:13:39.547Z,29.60
2017-12-21T01:16:41.531Z,20.80
2017-12-21T01:19:42.795Z,28.33
2017-12-21T01:22:44.095Z,24.93
2017-12-21T01:25:46.078Z,24.63
2017-12-21T01:28:48.067Z,27.23
2017-12-21T01:31:49.285Z,24.20
2017-12-21T01:34:51.286Z,26.50
2017-12-21T01:37:52.557Z,33.53
2017-12-21T01:40:53.840Z,27.50
2017-12-21T01:43:55.881Z,27.90
2017-12-21T01:46:57.134Z,22.13
2017-12-21T01:49:58.420Z,18.77
2017-12-21T01:52:59.660Z,22.23
2017-12-21T01:56:00.943Z,25.40
2017-12-21T01:59:02.217Z,16.10
2017-12-21T02:02:03.490Z,19.77
2017-12-21T02:05:05.588Z,23.30
2017-12-21T02:08:06.837Z,21.57
2017-12-21T02:11:08.125Z,24.53
2017-12-21T02:14:09.403Z,22.57
2017-12-21T02:17:11.437Z,30.30
2017-12-21T02:20:12.777Z,29.67
2017-12-21T02:23:14.073Z,26.30
2017-12-21T02:26:15.381Z,43.23
2017-12-21T02:29:16.630Z,34.70
2017-12-21T02:32:17.933Z,47.67
2017-12-21T02:35:19.234Z,41.47
2017-12-21T02:38:20.530Z,42.93
2017-12-21T02:41:21.785Z,39.33
2017-12-21T02:44:23.132Z,51.10
2017-12-21T02:47:24.409Z,49.07
2017-12-21T02:50:25.696Z,49.77
2017-12-21T02:53:26.971Z,43.63
2017-12-21T02:56:28.268Z,49.43
2017-12-21T02:59:29.550Z,41.53
2017-12-21T03:02:31.564Z,48.50
2017-12-21T03:05:32.854Z,45.47
2017-12-21T03:08:34.160Z,43.70
2017-12-21T03:11:35.425Z,56.83
2017-12-21T03:14:36.705Z,51.00
2017-12-21T03:17:37.956Z,54.63
2017-12-21T03:20:39.244Z,54.63
2017-12-21T03:23:40.512Z,58.63
2017-12-21T03:26:41.785Z,45.27
2017-12-21T03:29:43.066Z,50.53
2017-12-21T03:32:45.041Z,59.83
2017-12-21T03:35:46.309Z,43.23
2017-12-21T03:38:47.580Z,47.47
2017-12-21T03:41:48.849Z,31.27
2017-12-21T03:44:50.124Z,32.33
2017-12-21T03:47:52.175Z,35.33
2017-12-21T03:50:53.476Z,34.90
2017-12-21T03:53:54.740Z,36.47
2017-12-21T03:56:56.782Z,32.97
2017-12-21T03:59:58.032Z,34.03
2017-12-21T04:02:59.292Z,35.50
2017-12-21T04:06:00.585Z,47.93
2017-12-21T04:09:01.864Z,49.50
2017-12-21T04:12:03.179Z,48.57
2017-12-21T04:15:04.456Z,55.23
2017-12-21T04:18:05.753Z,48.73
2017-12-21T04:21:06.988Z,47.07
2017-12-21T04:24:08.257Z,57.63
2017-12-21T04:27:09.458Z,50.83
2017-12-21T04:30:10.745Z,64.57
2017-12-21T04:33:12.009Z,51.40
2017-12-21T04:36:13.288Z,48.03
2017-12-21T04:39:14.600Z,38.63
2017-12-21T04:42:15.837Z,42.37
2017-12-21T04:45:17.172Z,46.17
2017-12-21T04:48:18.422Z,43.67
2017-12-21T04:51:19.727Z,48.50
2017-12-21T04:54:21.734Z,50.63
2017-12-21T04:57:23.022Z,56.10
2017-12-21T05:00:24.298Z,51.83
2017-12-21T05:03:25.585Z,57.93
2017-12-21T05:06:26.853Z,45.53
2017-12-21T05:09:28.105Z,69.93
2017-12-21T05:12:29.409Z,59.43
2017-12-21T05:15:30.737Z,62.37
2017-12-21T05:18:32.002Z,55.50
2017-12-21T05:21:33.285Z,57.23
2017-12-21T05:24:34.556Z,51.10
2017-12-21T05:27:35.854Z,53.37
2017-12-21T05:30:37.084Z,65.33
2017-12-21T05:33:38.392Z,59.23
2017-12-21T05:36:40.428Z,54.27
2017-12-21T05:39:41.689Z,67.27
2017-12-21T05:42:42.971Z,50.70
2017-12-21T05:45:44.970Z,62.93
2017-12-21T05:48:46.236Z,73.03
2017-12-21T05:51:47.492Z,71.13
2017-12-21T05:54:48.820Z,63.33
2017-12-21T05:57:50.082Z,60.10
2017-12-21T06:00:51.356Z,55.63
2017-12-21T06:03:52.648Z,49.00
2017-12-21T06:06:53.895Z,46.37
2017-12-21T06:09:55.159Z,56.47
2017-12-21T06:12:56.396Z,58.93
2017-12-21T06:15:57.686Z,63.63
2017-12-21T06:18:58.947Z,57.33
2017-12-21T06:22:00.231Z,64.00
2017-12-21T06:25:02.232Z,34.43
2017-12-21T06:28:03.494Z,42.60
2017-12-21T06:31:04.749Z,46.77
2017-12-21T06:34:06.005Z,46.10
2017-12-21T06:37:07.261Z,43.50
2017-12-21T06:40:08.484Z,37.73
2017-12-21T06:43:09.760Z,43.87
2017-12-21T06:46:11.026Z,42.33
2017-12-21T06:49:13.021Z,50.20
2017-12-21T06:52:14.305Z,50.13
2017-12-21T06:55:15.532Z,40.50
2017-12-21T06:58:16.799Z,53.93
2017-12-21T07:01:18.048Z,38.93
2017-12-21T07:04:19.316Z,41.17
2017-12-21T07:07:20.526Z,39.80
2017-12-21T07:10:21.794Z,39.30
2017-12-21T07:13:23.136Z,37.80
2017-12-21T07:16:24.376Z,35.23
2017-12-21T07:19:25.653Z,36.70
2017-12-21T07:22:26.885Z,38.00
2017-12-21T07:25:28.148Z,26.30
2017-12-21T07:28:29.373Z,33.00
2017-12-21T07:31:30.629Z,30.73
2017-12-21T07:34:31.877Z,35.17
2017-12-21T07:37:33.148Z,28.00
2017-12-21T07:40:34.700Z,33.90
2017-12-21T07:43:35.948Z,25.97
2017-12-21T07:46:37.265Z,29.90
2017-12-21T07:49:38.493Z,23.07
2017-12-21T07:52:39.745Z,27.73
2017-12-21T07:55:41.016Z,28.13
2017-12-21T07:58:42.265Z,19.10
2017-12-21T08:01:43.558Z,22.03
2017-12-21T08:04:45.537Z,25.37
2017-12-21T08:07:46.809Z,21.90
2017-12-21T08:10:48.040Z,21.63
2017-12-21T08:13:49.313Z,18.80
2017-12-21T08:16:50.539Z,27.40
2017-12-21T08:19:51.792Z,24.13
2017-12-21T08:22:53.017Z,134.03
2017-12-21T08:25:54.275Z,20.07
2017-12-21T08:28:55.512Z,17.40
2017-12-21T08:31:56.737Z,13.60
2017-12-21T08:34:58.713Z,17.10
2017-12-21T08:38:00.693Z,26.03
2017-12-21T08:41:02.004Z,13.77
2017-12-21T08:44:03.310Z,13.40
2017-12-21T08:47:05.293Z,16.27
2017-12-21T08:50:13.515Z,16.90
2017-12-21T08:53:14.766Z,14.67
2017-12-21T08:56:16.080Z,13.90
2017-12-21T08:59:17.358Z,13.10
2017-12-21T09:02:19.351Z,12.80
2017-12-21T09:05:21.333Z,16.83
2017-12-21T09:08:23.321Z,15.07
2017-12-21T09:11:24.560Z,11.40
2017-12-21T09:14:25.797Z,17.67
2017-12-21T09:17:27.095Z,15.40
2017-12-21T09:20:28.396Z,11.93
2017-12-21T09:23:29.743Z,11.40
2017-12-21T09:26:31.030Z,12.63
2017-12-21T09:29:32.320Z,16.73
2017-12-21T09:32:34.293Z,14.67
2017-12-21T09:35:36.312Z,12.70
2017-12-21T09:38:37.612Z,14.17
2017-12-21T09:41:39.612Z,19.20
2017-12-21T09:44:40.933Z,18.60
2017-12-21T09:47:42.913Z,14.50
2017-12-21T09:50:44.169Z,17.17
2017-12-21T09:53:45.416Z,15.67
2017-12-21T09:56:46.701Z,15.87
2017-12-21T09:59:47.969Z,18.50
2017-12-21T10:02:49.195Z,21.20
2017-12-21T10:05:50.465Z,17.57
2017-12-21T10:08:52.485Z,19.63
2017-12-21T10:11:53.753Z,23.27
2017-12-21T10:14:54.993Z,31.20
2017-12-21T10:17:56.265Z,22.73
2017-12-21T10:20:57.513Z,22.80
2017-12-21T10:23:58.768Z,22.87
2017-12-21T10:27:00.794Z,43.43
2017-12-21T10:30:02.070Z,27.27
2017-12-21T10:33:03.357Z,22.27
2017-12-21T10:36:04.601Z,21.30
2017-12-21T10:39:06.630Z,21.17
2017-12-21T10:42:07.918Z,25.30
2017-12-21T10:45:09.182Z,30.00
2017-12-21T10:48:10.439Z,23.30
2017-12-21T10:51:11.681Z,25.13
2017-12-21T10:54:12.938Z,21.97
2017-12-21T10:57:14.198Z,26.40
2017-12-21T11:00:15.480Z,26.97
2017-12-21T11:03:16.719Z,24.30
2017-12-21T11:06:17.993Z,25.30
2017-12-21T11:09:20.020Z,27.83
2017-12-21T11:12:21.277Z,25.40
2017-12-21T11:15:22.562Z,21.40
2017-12-21T11:18:24.557Z,26.03
2017-12-21T11:21:25.833Z,22.90
2017-12-21T11:24:27.444Z,19.30
2017-12-21T11:27:28.740Z,13.40
2017-12-21T11:30:30.051Z,21.00
2017-12-21T11:33:31.334Z,20.40
2017-12-21T11:36:32.600Z,16.60
2017-12-21T11:39:33.877Z,15.70
2017-12-21T11:42:35.173Z,14.03
2017-12-21T11:45:36.481Z,13.27
2017-12-21T11:48:37.749Z,16.70
2017-12-21T11:51:39.037Z,13.43
2017-12-21T11:54:40.304Z,17.60
2017-12-21T11:57:42.344Z,14.37
2017-12-21T12:00:44.432Z,24.00
2017-12-21T12:03:45.727Z,20.33
2017-12-21T12:06:46.990Z,19.30
2017-12-21T12:09:48.287Z,16.50
2017-12-21T12:12:50.328Z,20.10
2017-12-21T12:15:51.553Z,14.60
2017-12-21T12:18:52.823Z,16.10
2017-12-21T12:21:54.046Z,14.80
2017-12-21T12:24:55.333Z,15.20
2017-12-21T12:27:56.557Z,18.20
2017-12-21T12:30:57.817Z,23.70
2017-12-21T12:33:59.063Z,20.17
2017-12-21T12:37:00.324Z,22.30
2017-12-21T12:40:01.621Z,23.30
2017-12-21T12:43:02.870Z,26.23
2017-12-21T12:46:04.183Z,31.83
2017-12-21T12:49:06.217Z,36.23
2017-12-21T12:52:07.479Z,41.07
2017-12-21T12:55:08.701Z,34.17
2017-12-21T12:58:09.965Z,38.17
2017-12-21T13:01:11.194Z,35.30
2017-12-21T13:04:12.470Z,36.90
2017-12-21T13:07:13.748Z,32.27
2017-12-21T13:10:14.981Z,31.83
2017-12-21T13:13:16.962Z,28.00
2017-12-21T13:16:18.249Z,25.00
2017-12-21T13:19:19.562Z,28.57
2017-12-21T13:22:20.818Z,21.40
2017-12-21T13:25:22.058Z,25.87
2017-12-21T13:28:23.286Z,29.40
2017-12-21T13:31:25.491Z,22.07
2017-12-21T13:34:26.734Z,22.80
2017-12-21T13:37:28.074Z,24.13
2017-12-21T13:40:29.451Z,22.20
2017-12-21T13:43:30.812Z,24.70
2017-12-21T13:46:32.590Z,27.33
2017-12-21T13:49:34.182Z,21.30
2017-12-21T13:52:35.727Z,22.23
2017-12-21T13:55:37.010Z,17.70
2017-12-21T13:58:38.309Z,22.30
2017-12-21T14:01:39.860Z,20.87
2017-12-21T14:04:41.162Z,22.43
2017-12-21T14:07:42.401Z,21.30
2017-12-21T14:10:43.658Z,22.20
2017-12-21T14:13:45.526Z,19.60
2017-12-21T14:16:47.568Z,18.03
2017-12-21T14:19:48.803Z,16.53
2017-12-21T14:22:50.785Z,22.03
2017-12-21T14:25:52.009Z,22.50
2017-12-21T14:28:54.057Z,26.87
2017-12-21T14:31:55.470Z,27.27
2017-12-21T14:34:56.690Z,33.27
2017-12-21T14:37:57.935Z,34.20
2017-12-21T14:40:59.962Z,43.60
2017-12-21T14:44:01.225Z,45.37
2017-12-21T14:47:02.481Z,48.40
2017-12-21T14:50:04.505Z,44.30
2017-12-21T14:53:05.770Z,46.20
2017-12-21T14:56:07.002Z,226.87
2017-12-21T14:59:09.029Z,57.97
2017-12-21T15:02:10.274Z,50.53
2017-12-21T15:05:11.536Z,39.57
2017-12-21T15:08:12.763Z,60.03
2017-12-21T15:11:14.823Z,48.73
2017-12-21T15:14:16.806Z,60.27
2017-12-21T15:17:18.062Z,59.27
2017-12-21T15:20:19.313Z,56.53
2017-12-21T15:23:20.548Z,66.33
2017-12-21T15:26:21.789Z,54.23
2017-12-21T15:29:23.737Z,69.30
2017-12-21T15:32:25.736Z,65.50
2017-12-21T15:35:27.025Z,68.60
2017-12-21T15:38:28.285Z,64.47
2017-12-21T15:41:29.546Z,62.50
2017-12-21T15:44:30.776Z,60.10
2017-12-21T15:47:32.084Z,75.63
2017-12-21T15:50:33.310Z,67.87
2017-12-21T15:53:35.329Z,66.53
2017-12-21T15:56:36.592Z,66.77
2017-12-21T15:59:37.832Z,71.50
2017-12-21T16:02:39.113Z,69.20
2017-12-21T16:05:41.113Z,66.00
2017-12-21T16:08:42.448Z,135.37
2017-12-21T16:11:43.784Z,61.90
2017-12-21T16:14:45.828Z,58.87
2017-12-21T16:17:47.065Z,48.20
2017-12-21T16:20:48.357Z,54.17
2017-12-21T16:23:49.644Z,47.57
2017-12-21T16:26:50.905Z,45.47
2017-12-21T16:29:52.166Z,33.83
2017-12-21T16:32:53.398Z,43.80
2017-12-21T16:35:54.678Z,43.57
2017-12-21T16:38:56.704Z,46.30
2017-12-21T16:41:57.982Z,44.60
2017-12-21T16:44:59.962Z,41.47
2017-12-21T16:48:02.030Z,46.10
2017-12-21T16:51:04.082Z,39.03
2017-12-21T16:54:06.093Z,49.20
2017-12-21T16:57:07.383Z,39.13
2017-12-21T17:00:09.405Z,33.47
2017-12-21T17:03:10.692Z,43.47
2017-12-21T17:06:11.992Z,51.03
2017-12-21T17:09:13.292Z,41.07
2017-12-21T17:12:14.537Z,37.10
2017-12-21T17:15:15.844Z,41.20
2017-12-21T17:18:17.150Z,35.43
2017-12-21T17:21:18.430Z,41.10
2017-12-21T17:24:19.694Z,39.80
2017-12-21T17:27:20.956Z,33.33
2017-12-21T17:30:22.241Z,39.53
2017-12-21T17:33:23.498Z,35.47
2017-12-21T17:36:25.565Z,40.27
2017-12-21T17:39:27.620Z,48.37
2017-12-21T17:42:28.899Z,46.07
2017-12-21T17:45:30.243Z,44.00
2017-12-21T17:48:32.298Z,54.23
2017-12-21T17:51:34.356Z,41.67
2017-12-21T17:54:36.050Z,49.47
2017-12-21T17:57:37.757Z,42.47
2017-12-21T18:00:39.046Z,63.43
2017-12-21T18:03:41.255Z,49.77
2017-12-21T18:06:42.577Z,43.10
2017-12-21T18:09:44.210Z,44.03
2017-12-21T18:12:46.443Z,54.50
2017-12-21T18:15:48.559Z,46.83
2017-12-21T18:18:50.540Z,42.67
2017-12-21T18:21:51.837Z,55.70
2017-12-21T18:24:53.705Z,50.60
2017-12-21T18:27:55.009Z,48.37
2017-12-21T18:30:56.291Z,48.20
2017-12-21T18:33:57.584Z,54.87
2017-12-21T18:36:59.494Z,61.37
2017-12-21T18:40:00.890Z,66.70
2017-12-21T18:43:04.014Z,55.33
2017-12-21T18:46:05.304Z,49.90
2017-12-21T18:49:06.648Z,50.33
2017-12-21T18:52:07.964Z,49.73
2017-12-21T18:55:09.254Z,47.23
2017-12-21T18:58:10.549Z,49.37
2017-12-21T19:01:11.883Z,43.80
2017-12-21T19:04:13.918Z,46.60
2017-12-21T19:07:15.215Z,44.80
2017-12-21T19:10:16.489Z,46.17
2017-12-21T19:13:17.765Z,52.23
2017-12-21T19:16:19.075Z,51.13
2017-12-21T19:19:20.993Z,50.70
2017-12-21T19:22:23.715Z,56.50
2017-12-21T19:25:25.017Z,49.47
2017-12-21T19:28:27.393Z,50.97
2017-12-21T19:31:29.965Z,49.00
2017-12-21T19:34:31.675Z,45.50
2017-12-21T19:37:34.127Z,64.00
2017-12-21T19:40:36.285Z,53.70
2017-12-21T19:43:38.424Z,53.93
2017-12-21T19:46:40.522Z,61.73
2017-12-21T19:49:43.172Z,61.63
2017-12-21T19:52:44.540Z,57.17
2017-12-21T19:55:46.255Z,51.30
2017-12-21T19:58:47.571Z,59.43
2017-12-21T20:01:50.751Z,49.13
2017-12-21T20:04:52.906Z,59.93
2017-12-21T20:07:56.119Z,50.83
2017-12-21T20:11:07.360Z,55.20
2017-12-21T20:14:09.425Z,48.67
2017-12-21T20:17:11.816Z,50.37
2017-12-21T20:20:13.127Z,47.53
2017-12-21T20:23:15.380Z,54.50
2017-12-21T20:26:18.136Z,59.57
2017-12-21T20:29:21.563Z,54.43
2017-12-21T20:32:23.730Z,43.47
2017-12-21T20:35:25.187Z,47.80
2017-12-21T20:38:26.953Z,50.77
2017-12-21T20:41:29.102Z,55.90
2017-12-21T20:44:31.136Z,60.77
2017-12-21T20:47:32.582Z,46.57
2017-12-21T20:50:34.992Z,54.50
2017-12-21T20:53:37.072Z,54.97
2017-12-21T20:56:38.322Z,47.53
2017-12-21T20:59:39.698Z,57.87
2017-12-21T21:02:41.803Z,55.90
2017-12-21T21:05:43.907Z,71.67
2017-12-21T21:08:46.474Z,79.50
2017-12-21T21:11:48.596Z,52.30
2017-12-21T21:14:50.351Z,84.27
2017-12-21T21:17:53.252Z,91.47
2017-12-21T21:20:56.047Z,79.07
2017-12-21T21:23:58.248Z,73.57
2017-12-21T21:27:01.093Z,38.33
2017-12-21T21:30:04.658Z,45.90
2017-12-21T21:33:06.198Z,63.33
2017-12-21T21:36:07.558Z,78.03
2017-12-21T21:39:09.407Z,43.53
2017-12-21T21:42:10.958Z,50.17
2017-12-21T21:45:12.531Z,65.77
2017-12-21T21:48:14.694Z,58.97
2017-12-21T21:51:16.005Z,60.23
2017-12-21T21:54:17.296Z,58.30
2017-12-21T21:57:19.167Z,69.90
2017-12-21T22:00:21.071Z,57.30
2017-12-21T22:03:22.398Z,47.77
2017-12-21T22:06:24.071Z,73.97
2017-12-21T22:09:26.688Z,53.77
2017-12-21T22:12:28.607Z,59.13
2017-12-21T22:15:29.954Z,52.80
2017-12-21T22:18:31.249Z,76.80
2017-12-21T22:21:33.383Z,56.50
2017-12-21T22:24:34.714Z,60.20
2017-12-21T22:27:35.975Z,69.40
2017-12-21T22:30:37.305Z,60.73
2017-12-21T22:33:38.578Z,56.43
2017-12-21T22:36:39.884Z,61.63
2017-12-21T22:39:41.196Z,61.83
2017-12-21T22:42:43.217Z,57.07
2017-12-21T22:45:44.561Z,73.03
2017-12-21T22:48:45.856Z,61.50
2017-12-21T22:51:47.160Z,56.63
2017-12-21T22:54:48.471Z,58.70
2017-12-21T22:57:50.473Z,53.90
2017-12-21T23:00:51.781Z,52.43
2017-12-21T23:03:53.758Z,82.67
2017-12-21T23:06:55.822Z,67.97
2017-12-21T23:09:57.884Z,71.57
2017-12-21T23:12:59.886Z,62.63
2017-12-21T23:16:01.281Z,59.63
2017-12-21T23:19:03.337Z,58.27
2017-12-21T23:22:04.651Z,68.33
2017-12-21T23:25:05.985Z,73.07
2017-12-21T23:28:07.257Z,63.97
2017-12-21T23:31:08.573Z,61.23
2017-12-21T23:34:09.988Z,62.30
2017-12-21T23:37:12.049Z,67.43
2017-12-21T23:40:13.481Z,61.60
2017-12-21T23:43:14.729Z,63.93
2017-12-21T23:46:16.174Z,62.50
2017-12-21T23:49:17.576Z,59.47
2017-12-21T23:52:18.932Z,53.53
2017-12-21T23:55:21.242Z,54.77
2017-12-21T23:58:22.469Z,60.03
